Pinehurst, Texas
Current Conditions -  °F | °C
As of 6:53 PM on Saturday 22 Nov 2014 (Local Time) from KDWH Reporting Station
Light Rain Light Rain  
Wind Chill: 66°   Ceiling: 4600
Heat Index: 66°   Visibility: 8mi
Dew Point: 64°   Wind: 9mph
Humidity: 93%   Direction: 140°SE
Pressure: 29.8"   Gusts: NA
Location:  30.19°N, 95.71°W
Report Text: KDWH 230053Z 14008KT 8SM -RA FEW006 BKN046 OVC055 19/18 A2980 RMK AO2 RAE15B31 SLP089 P0001 T01890178
Loading
Personal Weather Stations






























Interactive Weather Map New forecast layout! Learn more

10-Day Weather Forecast

Advertisements
Track Severe Weather on mobile